Time;durP1;ratioP1;P1;durP2;ratioP2;P2;SDS_P1;SDS_P2;PMS_P1;PMS_P2;Temp;Humidity;BMP_temperature;BMP_pressure;BME280_temperature;BME280_humidity;BME280_pressure;Samples;Min_cycle;Max_cycle;Signal;HPM_P1;HPM_P2
2021/12/17 00:04:39;;;;;;;1.70;1.60;;;;;;;5.75;100.00;100270.38;4960351;28;20555;-54
2021/12/17 00:07:11;;;;;;;1.60;1.50;;;;;;;5.76;100.00;100267.00;4953259;28;20035;-57
2021/12/17 00:09:38;;;;;;;1.70;1.60;;;;;;;5.80;100.00;100271.34;4956983;28;20205;-60
2021/12/17 00:12:09;;;;;;;1.57;1.40;;;;;;;5.75;100.00;100273.78;4955559;28;20106;-59
2021/12/17 00:14:37;;;;;;;1.70;1.60;;;;;;;5.74;100.00;100271.19;4954335;28;20070;-59
2021/12/17 00:17:08;;;;;;;1.60;1.50;;;;;;;5.77;100.00;100253.47;4950742;28;20039;-58
2021/12/17 00:49:29;;;;;;;1.53;1.43;;;;;;;5.80;100.00;100223.00;4994500;28;19952;-59
2021/12/17 00:51:56;;;;;;;2.00;1.80;;;;;;;5.76;100.00;100231.38;4993613;28;20495;-59
2021/12/17 00:54:34;;;;;;;1.50;1.40;;;;;;;5.74;100.00;100220.28;4989334;28;20057;-59
2021/12/17 00:57:12;;;;;;;2.30;2.10;;;;;;;5.75;100.00;100202.53;4990775;28;20045;-60
2021/12/17 00:59:39;;;;;;;2.63;2.37;;;;;;;5.68;100.00;100213.38;4992371;28;20062;-57
2021/12/17 01:02:14;;;;;;;1.83;1.73;;;;;;;5.72;100.00;100201.59;4991274;28;20026;-58
2021/12/17 01:04:45;;;;;;;1.42;1.33;;;;;;;5.64;100.00;100190.38;4993753;28;20038;-62
2021/12/17 01:07:12;;;;;;;3.10;1.83;;;;;;;5.83;100.00;100206.13;4989742;28;20654;-56
2021/12/17 01:09:38;;;;;;;1.77;1.67;;;;;;;5.83;100.00;100218.84;4993761;28;20040;-59
2021/12/17 01:12:05;;;;;;;2.03;1.87;;;;;;;5.81;100.00;100205.22;4972643;28;20508;-59
2021/12/17 01:14:31;;;;;;;2.30;2.20;;;;;;;5.80;100.00;100211.16;4995080;28;20597;-59
2021/12/17 01:16:58;;;;;;;2.40;1.93;;;;;;;5.77;100.00;100211.03;4992826;28;20032;-60
2021/12/17 01:22:52;;;;;;;1.73;1.63;;;;;;;5.83;100.00;100202.72;4942942;29;20035;-57
2021/12/17 01:25:38;;;;;;;2.13;1.93;;;;;;;5.74;100.00;100198.25;4943998;29;20166;-59
2021/12/17 01:36:19;;;;;;;2.03;1.90;;;;;;;5.63;100.00;100193.72;4945062;29;20126;-58
2021/12/17 01:41:56;;;;;;;2.00;1.80;;;;;;;5.62;100.00;100192.00;4942808;29;20924;-60
2021/12/17 01:44:17;;;;;;;2.47;1.83;;;;;;;5.67;100.00;100190.44;4942564;28;20568;-59
2021/12/17 01:46:45;;;;;;;1.70;1.60;;;;;;;5.74;100.00;100185.53;4945866;29;20369;-56
2021/12/17 02:00:09;;;;;;;2.10;1.90;;;;;;;5.80;100.00;100188.25;4991777;28;20107;-57
2021/12/17 02:02:41;;;;;;;;;;;;;;;5.75;100.00;100189.81;4992643;28;20424;-58
2021/12/17 02:05:08;;;;;;;1.47;1.37;;;;;;;5.71;100.00;100182.91;4997157;28;19917;-57
2021/12/17 02:07:33;;;;;;;1.80;1.70;;;;;;;5.77;100.00;100192.41;4993249;28;20038;-59
2021/12/17 02:29:50;;;;;;;1.80;1.53;;;;;;;5.88;100.00;100147.75;4955190;28;20218;-59
2021/12/17 02:32:00;;;;;;;1.93;1.37;;;;;;;5.91;100.00;100138.50;4954837;28;20405;-60
2021/12/17 02:37:01;;;;;;;2.50;1.97;;;;;;;6.04;100.00;100139.63;4957301;28;20039;-59
2021/12/17 02:48:12;;;;;;;1.37;1.27;;;;;;;5.86;100.00;100159.53;4955699;28;20102;-57
2021/12/17 02:50:58;;;;;;;1.43;1.33;;;;;;;5.84;100.00;100164.59;4956440;28;20499;-59
2021/12/17 02:53:27;;;;;;;1.00;1.00;;;;;;;5.75;100.00;100154.19;4963121;28;20207;-57
2021/12/17 02:56:01;;;;;;;1.63;1.40;;;;;;;5.79;100.00;100152.56;4954395;28;20041;-59
2021/12/17 02:58:29;;;;;;;1.30;1.20;;;;;;;5.74;100.00;100147.38;4956986;28;20504;-58
2021/12/17 03:00:55;;;;;;;1.90;1.80;;;;;;;5.72;100.00;100131.22;4971729;28;20047;-56
2021/12/17 03:03:25;;;;;;;1.80;1.60;;;;;;;5.73;100.00;100127.81;4973293;28;20462;-57
2021/12/17 03:05:50;;;;;;;2.07;1.63;;;;;;;5.73;100.00;100127.00;4973309;28;20130;-56
2021/12/17 03:08:17;;;;;;;2.17;1.70;;;;;;;5.74;100.00;100110.88;4975844;28;20027;-58
2021/12/17 03:10:46;;;;;;;1.83;1.73;;;;;;;5.79;100.00;100114.41;4971182;28;20038;-58
2021/12/17 03:13:12;;;;;;;1.67;1.53;;;;;;;5.78;100.00;100122.84;4974868;28;20110;-58
2021/12/17 03:15:46;;;;;;;1.57;1.47;;;;;;;5.73;100.00;100112.56;4974216;28;20149;-57
2021/12/17 03:18:56;;;;;;;1.30;1.20;;;;;;;5.77;100.00;100091.44;4966079;28;20335;-57
2021/12/17 03:23:59;;;;;;;1.80;1.70;;;;;;;5.84;100.00;100097.56;4974981;28;20060;-56
2021/12/17 03:26:27;;;;;;;2.67;1.77;;;;;;;5.90;100.00;100096.03;4971031;28;20035;-58
2021/12/17 03:28:56;;;;;;;1.67;1.57;;;;;;;5.86;100.00;100098.44;4971258;28;20523;-57
2021/12/17 03:31:23;;;;;;;1.60;1.30;;;;;;;5.89;100.00;100091.78;4979438;28;20545;-59
2021/12/17 03:33:56;;;;;;;1.57;1.47;;;;;;;5.87;100.00;100088.34;4972785;28;20103;-57
2021/12/17 03:36:21;;;;;;;1.47;1.37;;;;;;;5.90;100.00;100093.50;4972652;28;20026;-58
2021/12/17 03:38:49;;;;;;;1.60;1.50;;;;;;;5.90;100.00;100108.75;4970656;28;20057;-57
2021/12/17 03:41:19;;;;;;;1.77;1.43;;;;;;;5.94;100.00;100100.38;4972787;28;20062;-59
2021/12/17 03:43:46;;;;;;;1.50;1.40;;;;;;;5.94;100.00;100097.00;4973739;28;20117;-58
2021/12/17 03:46:12;;;;;;;1.70;1.60;;;;;;;5.96;100.00;100075.81;4966300;28;20223;-58
2021/12/17 03:48:39;;;;;;;1.90;1.70;;;;;;;5.93;100.00;100082.53;4970491;28;20248;-57
2021/12/17 03:51:11;;;;;;;2.40;2.20;;;;;;;5.90;100.00;100093.50;4975655;28;20117;-58
2021/12/17 03:53:37;;;;;;;1.90;1.80;;;;;;;5.87;100.00;100090.03;4971769;28;20039;-58
2021/12/17 03:56:02;;;;;;;2.60;1.40;;;;;;;5.92;100.00;100083.34;4967108;28;20039;-57
2021/12/17 03:58:28;;;;;;;2.23;2.00;;;;;;;5.92;100.00;100079.13;4976254;28;20061;-58
2021/12/17 04:00:53;;;;;;;2.10;1.43;;;;;;;5.92;100.00;100085.91;4990173;28;20042;-58
2021/12/17 04:03:19;;;;;;;1.90;1.70;;;;;;;5.93;100.00;100105.44;4969677;28;20043;-57
2021/12/17 04:05:44;;;;;;;2.30;1.60;;;;;;;5.87;100.00;100090.03;4972724;28;20031;-57
2021/12/17 04:08:09;;;;;;;2.37;2.17;;;;;;;5.80;100.00;100094.09;4974136;28;20030;-58
2021/12/17 04:10:42;;;;;;;3.93;2.53;;;;;;;5.79;100.00;100086.41;4972252;28;20085;-54
2021/12/17 04:13:26;;;;;;;2.10;1.90;;;;;;;5.75;100.00;100105.84;4970831;28;20275;-59
2021/12/17 04:16:01;;;;;;;2.27;1.93;;;;;;;5.78;100.00;100110.13;4971308;28;20034;-57
2021/12/17 04:18:28;;;;;;;2.83;2.03;;;;;;;5.74;100.00;100116.84;4972953;28;20086;-58
2021/12/17 04:20:53;;;;;;;2.67;2.07;;;;;;;5.70;100.00;100104.88;4973497;28;20058;-58
2021/12/17 04:23:20;;;;;;;2.67;2.17;;;;;;;5.77;100.00;100114.34;4971982;28;20159;-58
2021/12/17 04:25:48;;;;;;;3.17;2.30;;;;;;;5.71;100.00;100119.31;4971279;28;20469;-59
2021/12/17 04:28:14;;;;;;;2.40;2.20;;;;;;;5.70;100.00;100121.81;4980338;28;20045;-59
2021/12/17 04:30:39;;;;;;;2.60;2.40;;;;;;;5.62;100.00;100106.38;4969917;28;20027;-55
2021/12/17 04:33:06;;;;;;;2.63;2.43;;;;;;;5.47;100.00;100111.91;4970543;28;20037;-56
2021/12/17 04:35:33;;;;;;;2.77;2.40;;;;;;;5.36;100.00;100115.88;4972135;28;20038;-59
2021/12/17 04:37:59;;;;;;;2.63;2.43;;;;;;;5.40;100.00;100110.06;4973633;28;20027;-60
2021/12/17 04:40:26;;;;;;;2.17;1.97;;;;;;;5.46;100.00;100115.31;4975291;28;20696;-58
2021/12/17 04:43:11;;;;;;;2.43;2.17;;;;;;;5.50;100.00;100106.94;4968810;28;20039;-59
2021/12/17 04:45:42;;;;;;;3.33;2.40;;;;;;;5.49;100.00;100114.50;4974526;28;20075;-58
2021/12/17 04:59:06;;;;;;;2.77;2.40;;;;;;;5.65;100.00;100110.66;4974683;28;20297;-59
2021/12/17 05:01:33;;;;;;;2.93;2.63;;;;;;;5.66;100.00;100094.56;4993499;28;20555;-59
2021/12/17 05:03:58;;;;;;;4.07;2.80;;;;;;;5.53;100.00;100089.19;4994546;28;20082;-59
2021/12/17 05:06:28;;;;;;;3.37;3.07;;;;;;;5.57;100.00;100097.75;4995304;28;20435;-59
2021/12/17 05:08:58;;;;;;;4.03;3.63;;;;;;;5.55;100.00;100078.19;4992941;28;20460;-58
2021/12/17 05:18:13;;;;;;;4.13;2.87;;;;;;;5.53;100.00;100090.88;4990520;28;20104;-58
2021/12/17 05:19:58;;;;;;;4.50;2.90;;;;;;;5.65;100.00;100054.69;4941518;29;20041;-59
2021/12/17 05:22:26;;;;;;;3.97;2.87;;;;;;;5.60;100.00;100062.22;4944927;29;20471;-59
2021/12/17 05:24:51;;;;;;;4.30;3.70;;;;;;;5.56;100.00;100083.31;4945008;29;20106;-59
2021/12/17 05:27:18;;;;;;;2.90;2.60;;;;;;;5.64;100.00;100073.34;4944664;29;20047;-59
2021/12/17 05:29:44;;;;;;;3.23;2.67;;;;;;;5.66;100.00;100087.81;4940804;29;20047;-59
2021/12/17 05:32:09;;;;;;;3.70;2.77;;;;;;;5.63;100.00;100086.88;4945223;29;20038;-58
2021/12/17 05:34:35;;;;;;;3.23;2.77;;;;;;;5.60;100.00;100094.44;4928883;29;20043;-59
2021/12/17 05:37:00;;;;;;;3.10;2.77;;;;;;;5.61;100.00;100091.91;4943650;29;20749;-58
2021/12/17 05:39:25;;;;;;;3.47;3.00;;;;;;;5.46;100.00;100100.06;4938682;29;20143;-59
2021/12/17 05:41:52;;;;;;;4.77;2.97;;;;;;;5.51;100.00;100098.47;4945590;29;20473;-60
2021/12/17 05:44:20;;;;;;;5.87;4.53;;;;;;;5.43;100.00;100097.41;4944393;29;20576;-59
2021/12/17 05:46:49;;;;;;;3.40;3.10;;;;;;;5.45;100.00;100088.16;4943555;29;20527;-58
2021/12/17 05:49:20;;;;;;;6.17;4.10;;;;;;;5.40;100.00;100088.84;4940341;28;20039;-56
2021/12/17 05:51:45;;;;;;;4.50;3.70;;;;;;;5.32;100.00;100100.50;4947282;29;20037;-58
2021/12/17 05:54:11;;;;;;;4.77;3.93;;;;;;;5.34;100.00;100109.91;4974805;28;20054;-56
2021/12/17 05:56:38;;;;;;;3.60;3.30;;;;;;;5.30;100.00;100128.47;4991251;28;20050;-57
2021/12/17 05:59:03;;;;;;;6.07;4.60;;;;;;;5.27;100.00;100123.28;4992933;28;20038;-58
2021/12/17 06:01:29;;;;;;;5.57;3.67;;;;;;;5.39;100.00;100148.16;4998574;28;20034;-57
2021/12/17 06:03:54;;;;;;;5.40;4.17;;;;;;;5.33;100.00;100156.50;4998684;28;20045;-60
2021/12/17 06:06:47;;;;;;;6.73;4.33;;;;;;;5.42;100.00;100140.63;4993614;28;20157;-59
2021/12/17 06:09:13;;;;;;;6.50;4.10;;;;;;;5.38;100.00;100132.06;4986134;28;20133;-53
2021/12/17 06:11:38;;;;;;;6.40;4.53;;;;;;;5.50;100.00;100139.13;4980720;28;20129;-55
2021/12/17 06:14:05;;;;;;;5.57;4.27;;;;;;;5.47;100.00;100136.53;4997616;28;20118;-58
2021/12/17 06:16:33;;;;;;;5.57;4.97;;;;;;;5.48;100.00;100145.84;4989445;28;20447;-56
2021/12/17 06:18:59;;;;;;;5.93;4.43;;;;;;;5.42;100.00;100144.03;4989689;28;20117;-58
2021/12/17 06:21:24;;;;;;;5.13;4.10;;;;;;;5.40;100.00;100150.75;4995202;28;20127;-58
2021/12/17 06:23:50;;;;;;;5.23;4.73;;;;;;;5.50;100.00;100167.97;4993037;28;20067;-58
2021/12/17 06:26:15;;;;;;;5.43;4.07;;;;;;;5.43;100.00;100176.25;4990297;28;20878;-56
2021/12/17 06:28:41;;;;;;;6.97;4.20;;;;;;;5.50;100.00;100175.59;4994538;28;20093;-57
2021/12/17 06:31:06;;;;;;;5.37;4.77;;;;;;;5.47;100.00;100162.78;4995889;28;20753;-58
2021/12/17 06:33:31;;;;;;;5.80;5.13;;;;;;;5.40;100.00;100158.38;4992937;28;20038;-55
2021/12/17 06:35:57;;;;;;;9.30;4.97;;;;;;;5.48;100.00;100144.16;4991587;28;20102;-57
2021/12/17 06:38:24;;;;;;;5.03;4.53;;;;;;;5.56;100.00;100136.72;4996645;28;20106;-58
2021/12/17 06:40:53;;;;;;;5.70;4.57;;;;;;;5.51;100.00;100153.59;4996048;28;20479;-59
2021/12/17 06:43:22;;;;;;;6.60;4.90;;;;;;;5.48;100.00;100134.00;4993486;28;20042;-58
2021/12/17 06:46:01;;;;;;;6.90;4.80;;;;;;;5.51;100.00;100136.63;4994197;28;20701;-62
2021/12/17 06:48:29;;;;;;;6.00;4.97;;;;;;;5.51;100.00;100134.09;5001020;28;20144;-57
2021/12/17 06:59:37;;;;;;;4.87;4.20;;;;;;;5.63;100.00;100125.91;4996024;28;20084;-59
2021/12/17 07:34:31;;;;;;;4.30;3.77;;;;;;;5.90;100.00;100213.13;4845436;29;20441;-59
2021/12/17 07:38:37;;;;;;;;;;;;;;;6.00;100.00;100220.97;4847939;29;20153;-61
2021/12/17 07:39:42;;;;;;;4.80;3.40;;;;;;;5.90;100.00;100230.94;4845494;29;19999;-58
2021/12/17 07:42:07;;;;;;;6.33;4.07;;;;;;;5.89;100.00;100229.22;4843447;29;20045;-56
2021/12/17 07:44:33;;;;;;;4.73;4.03;;;;;;;5.93;100.00;100225.06;4845081;29;20045;-59
2021/12/17 07:46:58;;;;;;;6.07;3.97;;;;;;;5.93;100.00;100208.13;4846093;29;20052;-59
2021/12/17 07:49:24;;;;;;;4.30;3.90;;;;;;;5.92;100.00;100208.06;4845428;29;20128;-59
2021/12/17 07:51:49;;;;;;;5.97;3.77;;;;;;;5.97;100.00;100209.06;4848106;29;20139;-59
2021/12/17 07:54:15;;;;;;;5.73;4.53;;;;;;;6.08;100.00;100199.97;4893635;29;20355;-60
2021/12/17 07:56:40;;;;;;;5.50;4.80;;;;;;;6.02;100.00;100204.06;4894612;29;20055;-60
2021/12/17 07:59:08;;;;;;;8.80;4.67;;;;;;;6.03;100.00;100209.19;4893259;29;20071;-62
2021/12/17 08:01:35;;;;;;;4.97;3.73;;;;;;;5.97;100.00;100201.41;4892521;29;20036;-60
2021/12/17 08:04:01;;;;;;;6.00;4.10;;;;;;;6.02;100.00;100215.13;4894058;29;20053;-60
2021/12/17 08:06:26;;;;;;;7.93;4.53;;;;;;;6.16;100.00;100218.84;4895809;29;20051;-60
2021/12/17 08:08:52;;;;;;;5.60;4.43;;;;;;;6.13;100.00;100213.69;4891179;29;20036;-59
2021/12/17 08:11:18;;;;;;;6.30;4.87;;;;;;;6.19;100.00;100205.34;4921068;28;20051;-58
2021/12/17 08:13:45;;;;;;;6.13;5.03;;;;;;;6.33;100.00;100202.28;4949076;28;20038;-59
2021/12/17 08:27:08;;;;;;;6.57;4.67;;;;;;;6.46;100.00;100189.81;4949907;28;20043;-60
2021/12/17 08:31:32;;;;;;;6.97;4.90;;;;;;;6.40;100.00;100188.88;4951392;28;20058;-60
2021/12/17 08:34:02;;;;;;;6.87;4.93;;;;;;;6.48;100.00;100208.56;4951020;28;20114;-61
2021/12/17 08:36:28;;;;;;;6.50;4.77;;;;;;;6.48;100.00;100180.53;4949443;28;20036;-60
2021/12/17 08:38:53;;;;;;;6.63;4.67;;;;;;;6.46;100.00;100187.28;4948763;28;20033;-59
2021/12/17 08:41:21;;;;;;;8.83;5.83;;;;;;;6.55;100.00;100195.13;4952090;28;20031;-59
2021/12/17 08:43:46;;;;;;;6.10;5.30;;;;;;;6.51;100.00;100189.09;4950329;28;20031;-60
2021/12/17 08:46:13;;;;;;;6.47;5.10;;;;;;;6.57;100.00;100206.22;4950424;28;20360;-60
2021/12/17 08:48:39;;;;;;;8.67;5.57;;;;;;;6.64;100.00;100208.06;4948094;28;20147;-59
2021/12/17 08:51:06;;;;;;;8.83;5.53;;;;;;;6.69;100.00;100203.94;4951888;28;20027;-60
2021/12/17 08:53:32;;;;;;;8.83;6.07;;;;;;;6.74;100.00;100197.25;4953235;28;20031;-60
2021/12/17 08:55:58;;;;;;;6.27;5.07;;;;;;;6.58;100.00;100197.72;4949239;28;20043;-61
2021/12/17 08:58:24;;;;;;;8.17;5.23;;;;;;;6.55;100.00;100182.38;4949289;28;20031;-60
2021/12/17 09:00:49;;;;;;;6.97;5.10;;;;;;;6.59;100.00;100190.13;4980935;28;20351;-61
2021/12/17 09:03:14;;;;;;;7.83;5.17;;;;;;;6.56;100.00;100187.53;4991489;28;20034;-61
2021/12/17 09:05:42;;;;;;;7.90;5.37;;;;;;;6.64;100.00;100208.06;4987314;28;20031;-61
2021/12/17 09:08:10;;;;;;;7.53;5.60;;;;;;;6.49;100.00;100210.28;4987320;28;20034;-62
2021/12/17 09:10:36;;;;;;;7.83;5.70;;;;;;;6.73;100.00;100215.91;4990578;28;20561;-60
2021/12/17 09:13:03;;;;;;;7.90;5.63;;;;;;;6.81;100.00;100232.25;4990206;28;20081;-60
2021/12/17 09:15:29;;;;;;;9.20;6.17;;;;;;;6.83;100.00;100235.69;4987186;28;20440;-61
2021/12/17 09:17:55;;;;;;;7.70;5.00;;;;;;;6.81;100.00;100237.34;4986022;28;20042;-60
2021/12/17 09:20:20;;;;;;;6.90;4.97;;;;;;;6.85;100.00;100239.13;4991003;28;20073;-60
2021/12/17 09:22:46;;;;;;;7.03;5.70;;;;;;;6.76;100.00;100227.03;4989100;28;20396;-60
2021/12/17 09:25:12;;;;;;;7.70;4.97;;;;;;;6.79;100.00;100234.75;4985868;28;20033;-61
2021/12/17 09:27:39;;;;;;;8.60;5.60;;;;;;;6.78;100.00;100238.13;4987584;28;20057;-61
2021/12/17 09:30:07;;;;;;;7.73;5.17;;;;;;;6.76;100.00;100242.31;4988982;28;20060;-61
2021/12/17 09:32:33;;;;;;;8.27;4.80;;;;;;;6.99;100.00;100250.47;4989113;28;20509;-58
2021/12/17 09:34:59;;;;;;;6.77;5.17;;;;;;;6.97;100.00;100249.56;4988580;28;20424;-60
2021/12/17 09:37:24;;;;;;;6.40;4.90;;;;;;;7.03;100.00;100236.09;4989876;28;20073;-57
2021/12/17 09:39:50;;;;;;;6.97;4.80;;;;;;;7.05;100.00;100250.59;4990298;28;20026;-59
2021/12/17 09:42:16;;;;;;;7.67;5.13;;;;;;;7.02;100.00;100235.25;4993980;28;20034;-58
2021/12/17 09:44:42;;;;;;;5.50;4.27;;;;;;;6.94;100.00;100246.09;4993990;28;20541;-58
2021/12/17 09:47:08;;;;;;;6.20;4.53;;;;;;;6.96;100.00;100229.16;4993150;28;20033;-59
2021/12/17 09:49:33;;;;;;;10.23;4.67;;;;;;;6.93;100.00;100242.69;4996578;28;20033;-60
2021/12/17 09:52:00;;;;;;;6.23;4.47;;;;;;;7.09;100.00;100234.53;4989891;28;20026;-60
2021/12/17 09:54:27;;;;;;;6.43;5.10;;;;;;;7.14;100.00;100227.84;4988661;28;20423;-58
2021/12/17 09:56:52;;;;;;;6.67;4.47;;;;;;;7.11;100.00;100215.03;4993856;28;20064;-60
2021/12/17 09:59:18;;;;;;;7.90;4.33;;;;;;;7.17;100.00;100233.00;4996230;28;20050;-60
2021/12/17 10:01:45;;;;;;;6.70;4.67;;;;;;;7.26;100.00;100222.97;4981797;28;20030;-60
2021/12/17 10:04:17;;;;;;;8.83;5.07;;;;;;;7.29;100.00;100202.66;4989644;28;20088;-60
2021/12/17 10:06:43;;;;;;;7.43;5.00;;;;;;;7.19;96.99;100210.94;4997259;28;20036;-57
2021/12/17 10:09:10;;;;;;;6.77;4.30;;;;;;;7.31;95.60;100213.72;4995068;28;20090;-59
2021/12/17 10:11:36;;;;;;;8.80;5.33;;;;;;;7.20;94.92;100212.66;4990157;28;20489;-58
2021/12/17 10:14:24;;;;;;;10.03;4.50;;;;;;;7.21;94.28;100219.47;4993180;28;20133;-59
2021/12/17 10:16:50;;;;;;;5.30;4.20;;;;;;;7.16;93.22;100213.44;4996713;28;20208;-59
2021/12/17 10:19:42;;;;;;;11.70;4.53;;;;;;;7.40;94.65;100214.72;4999559;28;20679;-59
2021/12/17 10:22:12;;;;;;;6.63;4.10;;;;;;;7.37;93.04;100220.66;4988520;28;20568;-59
2021/12/17 10:24:43;;;;;;;9.17;4.93;;;;;;;7.15;93.44;100213.41;4992964;28;20085;-58
2021/12/17 10:27:22;;;;;;;5.23;3.67;;;;;;;7.06;93.56;100226.81;4994203;28;20085;-61
2021/12/17 10:29:48;;;;;;;9.27;4.50;;;;;;;7.02;95.05;100231.81;4991836;28;20025;-59
2021/12/17 10:32:19;;;;;;;6.43;4.57;;;;;;;7.03;97.05;100226.78;4990024;28;20645;-59
2021/12/17 10:35:02;;;;;;;7.80;4.17;;;;;;;7.17;97.27;100230.44;4995492;28;20388;-60
2021/12/17 10:37:41;;;;;;;8.00;4.63;;;;;;;7.33;98.22;100235.03;4994475;28;20038;-59
2021/12/17 10:40:17;;;;;;;9.33;5.67;;;;;;;7.31;98.29;100229.03;4995820;28;20021;-58
2021/12/17 10:42:51;;;;;;;7.07;5.13;;;;;;;7.38;100.00;100216.41;4995535;28;20034;-60
2021/12/17 10:45:25;;;;;;;9.97;5.30;;;;;;;7.55;100.00;100225.25;5000272;28;20048;-60
2021/12/17 10:48:21;;;;;;;8.00;4.37;;;;;;;7.47;96.85;100235.28;4996186;28;20668;-59
2021/12/17 10:50:48;;;;;;;8.70;5.07;;;;;;;7.67;100.00;100230.56;4990432;28;20065;-59
2021/12/17 10:53:14;;;;;;;6.90;5.13;;;;;;;7.62;96.94;100232.19;4994343;28;20033;-60
2021/12/17 10:55:44;;;;;;;6.53;4.77;;;;;;;7.52;97.52;100220.06;4997061;28;20030;-60
2021/12/17 10:58:10;;;;;;;7.70;5.20;;;;;;;7.49;97.09;100222.56;4992764;28;20035;-60
2021/12/17 11:00:46;;;;;;;7.33;4.50;;;;;;;7.43;96.41;100225.84;4991032;28;20111;-60
2021/12/17 11:03:11;;;;;;;7.20;5.07;;;;;;;7.39;98.11;100230.88;4994163;28;20026;-59
2021/12/17 11:05:37;;;;;;;8.80;5.00;;;;;;;7.46;100.00;100233.59;4992849;28;20042;-59
2021/12/17 11:08:19;;;;;;;8.43;5.20;;;;;;;7.51;100.00;100231.13;4990359;28;20042;-60
2021/12/17 11:10:56;;;;;;;7.50;4.60;;;;;;;7.37;96.86;100247.84;4993961;28;20041;-59
2021/12/17 11:13:21;;;;;;;5.83;3.87;;;;;;;7.35;96.62;100238.47;4992506;28;20423;-59
2021/12/17 11:15:49;;;;;;;10.97;5.03;;;;;;;7.28;98.21;100251.94;4997295;28;20038;-60
2021/12/17 11:18:15;;;;;;;7.00;4.57;;;;;;;6.99;97.98;100252.16;4990929;28;20159;-60
2021/12/17 11:20:40;;;;;;;6.87;4.50;;;;;;;7.00;96.68;100257.28;4991601;28;20026;-59
2021/12/17 11:23:11;;;;;;;7.23;4.77;;;;;;;6.91;96.49;100230.75;4993765;28;20465;-60
2021/12/17 11:25:38;;;;;;;7.67;4.37;;;;;;;6.98;97.80;100247.88;4999056;28;20239;-58
2021/12/17 11:28:05;;;;;;;7.40;5.30;;;;;;;7.04;99.49;100231.06;4989155;28;20114;-57
2021/12/17 11:30:35;;;;;;;8.77;5.40;;;;;;;7.06;100.00;100218.31;4994858;28;20041;-58
2021/12/17 11:33:03;;;;;;;9.07;5.37;;;;;;;7.00;100.00;100218.19;4995836;28;20037;-57
2021/12/17 11:35:31;;;;;;;7.37;4.93;;;;;;;7.01;100.00;100233.50;4988215;28;20030;-56
2021/12/17 11:38:00;;;;;;;10.57;5.23;;;;;;;6.96;100.00;100224.91;4992078;28;20033;-58
2021/12/17 11:40:40;;;;;;;8.00;5.00;;;;;;;7.07;100.00;100220.03;4989967;28;20080;-59
2021/12/17 11:43:17;;;;;;;9.50;4.77;;;;;;;7.05;100.00;100214.91;4993841;28;20026;-58
2021/12/17 11:45:45;;;;;;;12.20;5.23;;;;;;;7.13;100.00;100220.19;4991196;28;20659;-58
2021/12/17 11:48:22;;;;;;;8.80;5.70;;;;;;;7.26;100.00;100200.03;4986348;28;20029;-58
2021/12/17 11:51:04;;;;;;;8.53;4.30;;;;;;;7.13;100.00;100208.25;4997481;28;20034;-59
2021/12/17 11:53:30;;;;;;;9.03;5.53;;;;;;;7.14;100.00;100198.91;4991628;28;20173;-58
2021/12/17 11:55:58;;;;;;;7.50;5.30;;;;;;;7.16;100.00;100202.38;4982193;28;20128;-57
2021/12/17 11:58:44;;;;;;;8.80;4.97;;;;;;;7.10;100.00;100198.00;4989554;28;20034;-55
2021/12/17 12:01:10;;;;;;;;;;;;;;;7.06;100.00;100198.78;4997482;28;20057;-58
2021/12/17 12:03:35;;;;;;;7.67;5.53;;;;;;;6.96;100.00;100193.47;4994167;28;19917;-57
2021/12/17 12:06:01;;;;;;;8.00;5.20;;;;;;;6.76;100.00;100196.44;4990312;28;20034;-57
2021/12/17 12:08:46;;;;;;;11.57;6.70;;;;;;;6.79;100.00;100201.59;4991219;28;20410;-57
2021/12/17 12:11:23;;;;;;;10.77;6.17;;;;;;;6.85;100.00;100198.34;4994155;28;20093;-57
2021/12/17 12:13:53;;;;;;;11.67;6.77;;;;;;;6.80;100.00;100210.13;4991813;28;20026;-59
2021/12/17 12:16:21;;;;;;;9.27;5.73;;;;;;;6.82;100.00;100206.78;4988591;28;20041;-59
2021/12/17 12:18:52;;;;;;;9.07;5.80;;;;;;;6.97;100.00;100182.41;4990972;28;20034;-59
2021/12/17 12:21:22;;;;;;;8.23;5.40;;;;;;;7.01;100.00;100179.97;4993699;28;20028;-59
2021/12/17 12:23:53;;;;;;;13.77;6.63;;;;;;;7.06;100.00;100197.91;4992360;28;20567;-62
2021/12/17 12:26:27;;;;;;;9.73;5.77;;;;;;;7.14;100.00;100166.63;4991801;28;20042;-57
2021/12/17 12:29:04;;;;;;;10.67;5.77;;;;;;;7.06;100.00;100196.22;4992106;28;20026;-55
2021/12/17 12:31:34;;;;;;;8.00;5.20;;;;;;;6.99;100.00;100181.66;4981871;28;20022;-57
2021/12/17 12:34:06;;;;;;;9.53;5.37;;;;;;;7.02;100.00;100180.84;4983100;28;20456;-58
2021/12/17 12:36:52;;;;;;;7.93;4.80;;;;;;;7.13;100.00;100175.09;4993606;28;20045;-56
2021/12/17 12:39:19;;;;;;;;;;;;;;;7.31;100.00;100178.00;4977773;28;20138;-59
2021/12/17 12:42:03;;;;;;;9.63;5.97;;;;;;;7.30;100.00;100186.50;4989492;28;19964;-61
2021/12/17 12:44:44;;;;;;;8.33;4.97;;;;;;;7.37;100.00;100179.84;4996888;28;20316;-61
2021/12/17 12:47:31;;;;;;;7.97;5.10;;;;;;;7.38;100.00;100201.09;4994804;28;20384;-61
2021/12/17 12:50:03;;;;;;;8.60;5.40;;;;;;;7.29;100.00;100187.34;4986700;28;20045;-60
2021/12/17 12:52:32;;;;;;;8.57;5.20;;;;;;;7.34;100.00;100190.81;4994811;28;20027;-60
2021/12/17 12:55:03;;;;;;;8.30;5.17;;;;;;;7.32;100.00;100189.09;4996718;28;20104;-60
2021/12/17 12:57:52;;;;;;;8.03;5.00;;;;;;;7.32;100.00;100174.63;4993373;28;20239;-61
2021/12/17 13:00:21;;;;;;;9.23;5.83;;;;;;;7.21;100.00;100162.53;4980126;28;20061;-60
2021/12/17 13:02:53;;;;;;;8.93;6.27;;;;;;;7.33;100.00;100148.31;4990795;28;20033;-61
2021/12/17 13:05:19;;;;;;;7.20;4.60;;;;;;;7.30;100.00;100163.53;4991410;28;20031;-62
2021/12/17 13:07:44;;;;;;;9.53;6.07;;;;;;;7.32;100.00;100167.00;4995548;28;20038;-61
2021/12/17 13:10:30;;;;;;;8.17;5.73;;;;;;;7.41;100.00;100171.41;4996513;28;20038;-61
2021/12/17 13:13:02;;;;;;;;;;;;;;;7.43;100.00;100163.75;4999530;28;20124;-60
2021/12/17 13:23:54;;;;;;;8.70;5.00;;;;;;;7.17;100.00;100165.84;4999599;28;20472;-61
2021/12/17 13:26:26;;;;;;;9.93;5.53;;;;;;;6.98;100.00;100185.00;4992644;28;20038;-58
2021/12/17 13:29:21;;;;;;;8.33;5.83;;;;;;;6.84;100.00;100173.66;4994843;28;20044;-59
2021/12/17 13:31:52;;;;;;;9.00;5.40;;;;;;;6.89;100.00;100179.72;4993044;28;20042;-61
2021/12/17 13:34:29;;;;;;;7.73;4.23;;;;;;;6.84;100.00;100181.31;4997162;28;20104;-59
2021/12/17 13:37:06;;;;;;;8.47;4.93;;;;;;;6.93;100.00;100178.97;4995695;28;20042;-59
2021/12/17 13:39:56;;;;;;;6.87;4.37;;;;;;;6.95;100.00;100184.97;4998694;28;20034;-58
2021/12/17 13:42:28;;;;;;;9.80;5.17;;;;;;;7.01;100.00;100179.09;4988923;28;20424;-61
2021/12/17 13:45:17;;;;;;;7.13;4.53;;;;;;;7.00;100.00;100183.34;4998845;28;20080;-61
2021/12/17 13:47:48;;;;;;;9.87;6.57;;;;;;;6.99;100.00;100176.53;4998144;28;20142;-60
2021/12/17 13:50:24;;;;;;;14.33;8.03;;;;;;;6.96;100.00;100178.19;4995729;28;20427;-60
2021/12/17 13:52:58;;;;;;;8.93;6.27;;;;;;;6.90;100.00;100184.00;4991210;28;20693;-61
2021/12/17 13:55:48;;;;;;;10.77;5.87;;;;;;;6.85;100.00;100183.91;4991410;28;20112;-61
2021/12/17 13:58:22;;;;;;;42.43;19.53;;;;;;;6.88;100.00;100186.50;4986639;28;20044;-60
2021/12/17 14:00:53;;;;;;;18.77;10.80;;;;;;;6.91;100.00;100174.66;4993525;28;20081;-62
2021/12/17 14:03:22;;;;;;;9.20;5.50;;;;;;;6.65;100.00;100179.22;4990258;28;20040;-62
2021/12/17 14:05:51;;;;;;;10.13;6.20;;;;;;;6.67;100.00;100182.66;4988702;28;20069;-62
2021/12/17 14:08:21;;;;;;;8.87;6.27;;;;;;;6.66;100.00;100191.97;4992790;28;20022;-62
2021/12/17 14:10:49;;;;;;;9.67;5.57;;;;;;;6.54;100.00;100186.63;4993055;28;20165;-63
2021/12/17 14:13:21;;;;;;;13.70;8.73;;;;;;;6.57;100.00;100180.75;4991646;28;20062;-62
2021/12/17 14:15:48;;;;;;;7.13;4.70;;;;;;;6.54;100.00;100183.19;4989432;28;20030;-62
2021/12/17 14:18:16;;;;;;;13.90;6.93;;;;;;;6.56;100.00;100176.47;4994283;28;20045;-61
2021/12/17 14:20:45;;;;;;;8.17;5.93;;;;;;;6.57;100.00;100188.38;4992445;28;20116;-60
2021/12/17 14:23:17;;;;;;;17.27;8.80;;;;;;;6.50;100.00;100178.88;4990711;28;20026;-60
2021/12/17 14:26:07;;;;;;;10.00;5.47;;;;;;;6.47;100.00;100174.56;4990827;28;20184;-62
2021/12/17 14:28:36;;;;;;;9.77;6.03;;;;;;;6.47;100.00;100168.63;4984088;28;20084;-61
2021/12/17 14:31:10;;;;;;;9.27;4.67;;;;;;;6.38;100.00;100169.28;4991939;28;20033;-61